sensor_id;sensor_type;location;lat;lon;timestamp;temperature;humidity
5134;DHT22;2585;48.696;10.066;2023-08-17T00:01:35;18.20;93.60
5134;DHT22;2585;48.696;10.066;2023-08-17T00:04:02;18.30;93.70
5134;DHT22;2585;48.696;10.066;2023-08-17T00:06:28;18.30;93.70
5134;DHT22;2585;48.696;10.066;2023-08-17T00:08:55;18.20;93.70
5134;DHT22;2585;48.696;10.066;2023-08-17T00:11:22;18.20;93.70
5134;DHT22;2585;48.696;10.066;2023-08-17T00:13:49;18.20;93.70
5134;DHT22;2585;48.696;10.066;2023-08-17T00:16:16;18.00;93.60
5134;DHT22;2585;48.696;10.066;2023-08-17T00:18:43;18.10;93.70
5134;DHT22;2585;48.696;10.066;2023-08-17T00:21:10;17.90;93.60
5134;DHT22;2585;48.696;10.066;2023-08-17T00:23:37;17.80;93.60
5134;DHT22;2585;48.696;10.066;2023-08-17T00:26:04;17.80;93.70
5134;DHT22;2585;48.696;10.066;2023-08-17T00:28:32;17.70;93.70
5134;DHT22;2585;48.696;10.066;2023-08-17T00:31:00;17.70;93.70
5134;DHT22;2585;48.696;10.066;2023-08-17T00:33:27;17.80;93.80
5134;DHT22;2585;48.696;10.066;2023-08-17T00:35:54;17.70;93.70
5134;DHT22;2585;48.696;10.066;2023-08-17T00:38:21;17.70;93.70
5134;DHT22;2585;48.696;10.066;2023-08-17T00:40:48;17.60;93.70
5134;DHT22;2585;48.696;10.066;2023-08-17T00:43:15;17.50;93.70
5134;DHT22;2585;48.696;10.066;2023-08-17T00:45:42;17.40;93.70
5134;DHT22;2585;48.696;10.066;2023-08-17T00:48:10;17.40;93.70
5134;DHT22;2585;48.696;10.066;2023-08-17T00:50:38;17.40;93.70
5134;DHT22;2585;48.696;10.066;2023-08-17T00:53:05;17.40;93.70
5134;DHT22;2585;48.696;10.066;2023-08-17T00:55:33;17.30;93.70
5134;DHT22;2585;48.696;10.066;2023-08-17T00:58:01;17.30;93.70
5134;DHT22;2585;48.696;10.066;2023-08-17T01:00:28;17.30;93.70
5134;DHT22;2585;48.696;10.066;2023-08-17T01:02:55;17.30;93.70
5134;DHT22;2585;48.696;10.066;2023-08-17T01:05:23;17.30;93.70
5134;DHT22;2585;48.696;10.066;2023-08-17T01:07:50;17.30;93.70
5134;DHT22;2585;48.696;10.066;2023-08-17T01:10:18;17.30;93.70
5134;DHT22;2585;48.696;10.066;2023-08-17T01:13:04;17.30;93.70
5134;DHT22;2585;48.696;10.066;2023-08-17T01:15:38;17.10;93.60
5134;DHT22;2585;48.696;10.066;2023-08-17T01:18:29;17.10;93.60
5134;DHT22;2585;48.696;10.066;2023-08-17T01:20:58;17.10;93.60
5134;DHT22;2585;48.696;10.066;2023-08-17T01:23:25;17.00;93.60
5134;DHT22;2585;48.696;10.066;2023-08-17T01:25:52;17.00;93.60
5134;DHT22;2585;48.696;10.066;2023-08-17T01:28:20;17.00;93.60
5134;DHT22;2585;48.696;10.066;2023-08-17T01:30:54;17.00;93.60
5134;DHT22;2585;48.696;10.066;2023-08-17T01:33:33;16.90;93.60
5134;DHT22;2585;48.696;10.066;2023-08-17T01:38:33;16.90;93.60
5134;DHT22;2585;48.696;10.066;2023-08-17T01:41:01;16.90;93.60
5134;DHT22;2585;48.696;10.066;2023-08-17T01:43:29;16.90;93.60
5134;DHT22;2585;48.696;10.066;2023-08-17T01:45:56;16.90;93.60
5134;DHT22;2585;48.696;10.066;2023-08-17T01:48:23;16.90;93.60
5134;DHT22;2585;48.696;10.066;2023-08-17T01:50:50;16.80;93.60
5134;DHT22;2585;48.696;10.066;2023-08-17T01:53:17;16.70;93.60
5134;DHT22;2585;48.696;10.066;2023-08-17T01:55:44;16.70;93.60
5134;DHT22;2585;48.696;10.066;2023-08-17T01:58:10;16.70;93.60
5134;DHT22;2585;48.696;10.066;2023-08-17T02:00:37;16.60;93.60
5134;DHT22;2585;48.696;10.066;2023-08-17T02:03:04;16.60;93.60
5134;DHT22;2585;48.696;10.066;2023-08-17T02:05:31;16.50;93.50
5134;DHT22;2585;48.696;10.066;2023-08-17T02:07:58;16.50;93.50
5134;DHT22;2585;48.696;10.066;2023-08-17T02:10:25;16.50;93.50
5134;DHT22;2585;48.696;10.066;2023-08-17T02:12:51;16.40;93.50
5134;DHT22;2585;48.696;10.066;2023-08-17T02:15:27;16.50;93.60
5134;DHT22;2585;48.696;10.066;2023-08-17T02:17:54;16.40;93.50
5134;DHT22;2585;48.696;10.066;2023-08-17T02:20:21;16.40;93.50
5134;DHT22;2585;48.696;10.066;2023-08-17T02:22:48;16.30;93.50
5134;DHT22;2585;48.696;10.066;2023-08-17T02:25:14;16.20;93.50
5134;DHT22;2585;48.696;10.066;2023-08-17T02:27:41;16.20;93.50
5134;DHT22;2585;48.696;10.066;2023-08-17T02:30:08;16.30;93.50
5134;DHT22;2585;48.696;10.066;2023-08-17T02:32:35;16.20;93.50
5134;DHT22;2585;48.696;10.066;2023-08-17T02:35:02;16.10;93.50
5134;DHT22;2585;48.696;10.066;2023-08-17T02:37:29;16.00;93.50
5134;DHT22;2585;48.696;10.066;2023-08-17T02:39:56;16.10;93.50
5134;DHT22;2585;48.696;10.066;2023-08-17T02:42:23;16.10;93.50
5134;DHT22;2585;48.696;10.066;2023-08-17T02:44:50;16.10;93.50
5134;DHT22;2585;48.696;10.066;2023-08-17T02:47:17;16.00;93.50
5134;DHT22;2585;48.696;10.066;2023-08-17T02:49:44;16.10;93.50
5134;DHT22;2585;48.696;10.066;2023-08-17T02:52:10;16.10;93.50
5134;DHT22;2585;48.696;10.066;2023-08-17T02:54:37;16.00;93.50
5134;DHT22;2585;48.696;10.066;2023-08-17T02:57:04;16.00;93.50
5134;DHT22;2585;48.696;10.066;2023-08-17T02:59:31;16.00;93.50
5134;DHT22;2585;48.696;10.066;2023-08-17T03:01:58;16.00;93.50
5134;DHT22;2585;48.696;10.066;2023-08-17T03:04:24;15.90;93.40
5134;DHT22;2585;48.696;10.066;2023-08-17T03:06:51;15.90;93.40
5134;DHT22;2585;48.696;10.066;2023-08-17T03:09:18;15.90;93.40
5134;DHT22;2585;48.696;10.066;2023-08-17T03:11:45;15.80;93.40
5134;DHT22;2585;48.696;10.066;2023-08-17T03:14:12;15.80;93.40
5134;DHT22;2585;48.696;10.066;2023-08-17T03:16:39;15.90;93.50
5134;DHT22;2585;48.696;10.066;2023-08-17T03:19:06;15.80;93.40
5134;DHT22;2585;48.696;10.066;2023-08-17T03:21:34;15.80;93.40
5134;DHT22;2585;48.696;10.066;2023-08-17T03:24:01;15.70;93.40
5134;DHT22;2585;48.696;10.066;2023-08-17T03:26:28;15.70;93.40
5134;DHT22;2585;48.696;10.066;2023-08-17T03:28:54;15.60;93.40
5134;DHT22;2585;48.696;10.066;2023-08-17T03:31:21;15.60;93.40
5134;DHT22;2585;48.696;10.066;2023-08-17T03:33:49;15.50;93.40
5134;DHT22;2585;48.696;10.066;2023-08-17T03:36:16;15.60;93.40
5134;DHT22;2585;48.696;10.066;2023-08-17T03:38:42;15.60;93.40
5134;DHT22;2585;48.696;10.066;2023-08-17T03:41:10;15.60;93.40
5134;DHT22;2585;48.696;10.066;2023-08-17T03:43:37;15.60;93.40
5134;DHT22;2585;48.696;10.066;2023-08-17T03:46:04;15.60;93.40
5134;DHT22;2585;48.696;10.066;2023-08-17T03:48:32;15.60;93.40
5134;DHT22;2585;48.696;10.066;2023-08-17T03:50:59;15.50;93.40
5134;DHT22;2585;48.696;10.066;2023-08-17T03:53:27;15.50;93.40
5134;DHT22;2585;48.696;10.066;2023-08-17T03:55:54;15.60;93.40
5134;DHT22;2585;48.696;10.066;2023-08-17T03:58:21;15.60;93.40
5134;DHT22;2585;48.696;10.066;2023-08-17T04:00:51;15.50;93.40
5134;DHT22;2585;48.696;10.066;2023-08-17T04:03:19;15.50;93.40
5134;DHT22;2585;48.696;10.066;2023-08-17T04:05:46;15.60;93.40
5134;DHT22;2585;48.696;10.066;2023-08-17T04:08:13;15.50;93.40
5134;DHT22;2585;48.696;10.066;2023-08-17T04:10:40;15.50;93.40
5134;DHT22;2585;48.696;10.066;2023-08-17T04:13:06;15.60;93.40
5134;DHT22;2585;48.696;10.066;2023-08-17T04:15:34;15.40;93.30
5134;DHT22;2585;48.696;10.066;2023-08-17T04:18:00;15.40;93.30
5134;DHT22;2585;48.696;10.066;2023-08-17T04:20:27;15.40;93.40
5134;DHT22;2585;48.696;10.066;2023-08-17T04:22:54;15.40;93.40
5134;DHT22;2585;48.696;10.066;2023-08-17T04:25:21;15.50;93.40
5134;DHT22;2585;48.696;10.066;2023-08-17T04:27:48;15.50;93.40
5134;DHT22;2585;48.696;10.066;2023-08-17T04:30:14;15.50;93.40
5134;DHT22;2585;48.696;10.066;2023-08-17T04:32:41;15.50;93.40
5134;DHT22;2585;48.696;10.066;2023-08-17T04:35:08;15.40;93.40
5134;DHT22;2585;48.696;10.066;2023-08-17T04:37:36;15.40;93.40
5134;DHT22;2585;48.696;10.066;2023-08-17T04:40:03;15.40;93.40
5134;DHT22;2585;48.696;10.066;2023-08-17T04:42:31;15.40;93.40
5134;DHT22;2585;48.696;10.066;2023-08-17T04:44:58;15.40;93.40
5134;DHT22;2585;48.696;10.066;2023-08-17T04:47:25;15.50;93.40
5134;DHT22;2585;48.696;10.066;2023-08-17T04:49:52;15.50;93.40
5134;DHT22;2585;48.696;10.066;2023-08-17T04:52:19;15.50;93.40
5134;DHT22;2585;48.696;10.066;2023-08-17T04:54:46;15.50;93.40
5134;DHT22;2585;48.696;10.066;2023-08-17T04:57:13;15.60;93.40
5134;DHT22;2585;48.696;10.066;2023-08-17T04:59:40;15.50;93.40
5134;DHT22;2585;48.696;10.066;2023-08-17T05:02:07;15.50;93.40
5134;DHT22;2585;48.696;10.066;2023-08-17T05:04:35;15.60;93.40
5134;DHT22;2585;48.696;10.066;2023-08-17T05:07:02;15.60;93.40
5134;DHT22;2585;48.696;10.066;2023-08-17T05:09:28;15.60;93.40
5134;DHT22;2585;48.696;10.066;2023-08-17T05:11:55;15.70;93.50
5134;DHT22;2585;48.696;10.066;2023-08-17T05:14:22;15.70;93.50
5134;DHT22;2585;48.696;10.066;2023-08-17T05:16:49;15.80;93.50
5134;DHT22;2585;48.696;10.066;2023-08-17T05:19:16;15.80;93.50
5134;DHT22;2585;48.696;10.066;2023-08-17T05:21:42;15.90;93.50
5134;DHT22;2585;48.696;10.066;2023-08-17T05:24:09;15.90;93.50
5134;DHT22;2585;48.696;10.066;2023-08-17T05:26:36;16.00;93.60
5134;DHT22;2585;48.696;10.066;2023-08-17T05:29:03;16.10;93.60
5134;DHT22;2585;48.696;10.066;2023-08-17T05:31:30;16.10;93.60
5134;DHT22;2585;48.696;10.066;2023-08-17T05:33:57;16.20;93.60
5134;DHT22;2585;48.696;10.066;2023-08-17T05:36:24;16.30;93.60
5134;DHT22;2585;48.696;10.066;2023-08-17T05:38:50;16.40;93.70
5134;DHT22;2585;48.696;10.066;2023-08-17T05:41:17;16.40;93.70
5134;DHT22;2585;48.696;10.066;2023-08-17T05:43:44;16.50;93.70
5134;DHT22;2585;48.696;10.066;2023-08-17T05:46:11;16.60;93.70
5134;DHT22;2585;48.696;10.066;2023-08-17T05:48:38;16.50;93.70
5134;DHT22;2585;48.696;10.066;2023-08-17T05:51:04;16.60;93.70
5134;DHT22;2585;48.696;10.066;2023-08-17T05:53:31;16.70;93.70
5134;DHT22;2585;48.696;10.066;2023-08-17T05:55:58;16.70;93.70
5134;DHT22;2585;48.696;10.066;2023-08-17T05:58:25;16.80;93.80
5134;DHT22;2585;48.696;10.066;2023-08-17T06:00:52;16.90;93.80
5134;DHT22;2585;48.696;10.066;2023-08-17T06:03:19;16.90;93.80
5134;DHT22;2585;48.696;10.066;2023-08-17T06:05:46;17.00;93.80
5134;DHT22;2585;48.696;10.066;2023-08-17T06:08:12;17.10;93.80
5134;DHT22;2585;48.696;10.066;2023-08-17T06:10:39;17.20;93.90
5134;DHT22;2585;48.696;10.066;2023-08-17T06:13:06;17.30;93.90
5134;DHT22;2585;48.696;10.066;2023-08-17T06:15:33;17.40;93.90
5134;DHT22;2585;48.696;10.066;2023-08-17T06:17:59;17.60;94.00
5134;DHT22;2585;48.696;10.066;2023-08-17T06:20:26;17.70;94.00
5134;DHT22;2585;48.696;10.066;2023-08-17T06:22:53;17.90;94.00
5134;DHT22;2585;48.696;10.066;2023-08-17T06:25:20;18.00;94.00
5134;DHT22;2585;48.696;10.066;2023-08-17T06:27:49;18.20;94.10
5134;DHT22;2585;48.696;10.066;2023-08-17T06:30:16;18.40;94.10
5134;DHT22;2585;48.696;10.066;2023-08-17T06:32:42;18.60;94.10
5134;DHT22;2585;48.696;10.066;2023-08-17T06:35:10;18.70;94.20
5134;DHT22;2585;48.696;10.066;2023-08-17T06:37:36;18.90;94.20
5134;DHT22;2585;48.696;10.066;2023-08-17T06:40:04;19.10;94.20
5134;DHT22;2585;48.696;10.066;2023-08-17T06:42:32;19.30;94.30
5134;DHT22;2585;48.696;10.066;2023-08-17T06:44:58;19.50;94.30
5134;DHT22;2585;48.696;10.066;2023-08-17T06:47:25;19.50;94.30
5134;DHT22;2585;48.696;10.066;2023-08-17T06:49:54;19.60;94.30
5134;DHT22;2585;48.696;10.066;2023-08-17T06:52:21;20.00;94.40
5134;DHT22;2585;48.696;10.066;2023-08-17T06:54:47;20.30;94.40
5134;DHT22;2585;48.696;10.066;2023-08-17T06:57:14;20.60;94.40
5134;DHT22;2585;48.696;10.066;2023-08-17T06:59:41;20.70;94.30
5134;DHT22;2585;48.696;10.066;2023-08-17T07:02:09;20.90;94.20
5134;DHT22;2585;48.696;10.066;2023-08-17T07:04:35;21.10;94.20
5134;DHT22;2585;48.696;10.066;2023-08-17T07:07:02;21.40;94.10
5134;DHT22;2585;48.696;10.066;2023-08-17T07:09:29;21.60;93.90
5134;DHT22;2585;48.696;10.066;2023-08-17T07:11:56;22.00;93.80
5134;DHT22;2585;48.696;10.066;2023-08-17T07:14:23;22.20;93.60
5134;DHT22;2585;48.696;10.066;2023-08-17T07:16:49;22.30;92.80
5134;DHT22;2585;48.696;10.066;2023-08-17T07:19:16;22.40;92.00
5134;DHT22;2585;48.696;10.066;2023-08-17T07:21:43;22.70;91.80
5134;DHT22;2585;48.696;10.066;2023-08-17T07:24:14;22.90;89.60
5134;DHT22;2585;48.696;10.066;2023-08-17T07:26:41;23.10;82.50
5134;DHT22;2585;48.696;10.066;2023-08-17T07:29:08;23.40;76.80
5134;DHT22;2585;48.696;10.066;2023-08-17T07:31:35;23.70;77.90
5134;DHT22;2585;48.696;10.066;2023-08-17T07:34:07;24.00;66.70
5134;DHT22;2585;48.696;10.066;2023-08-17T07:36:34;24.30;1.00
5134;DHT22;2585;48.696;10.066;2023-08-17T07:39:01;24.30;1.00
5134;DHT22;2585;48.696;10.066;2023-08-17T07:41:27;24.40;1.00
5134;DHT22;2585;48.696;10.066;2023-08-17T07:43:54;24.60;77.70
5134;DHT22;2585;48.696;10.066;2023-08-17T07:46:21;24.60;1.00
5134;DHT22;2585;48.696;10.066;2023-08-17T07:48:48;24.60;65.30
5134;DHT22;2585;48.696;10.066;2023-08-17T07:51:15;24.70;1.00
5134;DHT22;2585;48.696;10.066;2023-08-17T07:53:42;25.00;1.00
5134;DHT22;2585;48.696;10.066;2023-08-17T07:56:09;25.20;1.00
5134;DHT22;2585;48.696;10.066;2023-08-17T07:58:36;25.20;18.20
5134;DHT22;2585;48.696;10.066;2023-08-17T08:01:03;24.70;1.00
5134;DHT22;2585;48.696;10.066;2023-08-17T08:03:31;25.00;1.00
5134;DHT22;2585;48.696;10.066;2023-08-17T08:05:57;25.50;1.00
5134;DHT22;2585;48.696;10.066;2023-08-17T08:08:24;25.90;90.90
5134;DHT22;2585;48.696;10.066;2023-08-17T08:10:53;26.20;53.30
5134;DHT22;2585;48.696;10.066;2023-08-17T08:13:20;26.40;73.30
5134;DHT22;2585;48.696;10.066;2023-08-17T08:15:47;26.60;1.00
5134;DHT22;2585;48.696;10.066;2023-08-17T08:18:14;26.70;91.70
5134;DHT22;2585;48.696;10.066;2023-08-17T08:20:41;26.80;78.10
5134;DHT22;2585;48.696;10.066;2023-08-17T08:23:08;26.90;47.30
5134;DHT22;2585;48.696;10.066;2023-08-17T08:25:35;27.00;1.00
5134;DHT22;2585;48.696;10.066;2023-08-17T08:28:01;27.10;1.00
5134;DHT22;2585;48.696;10.066;2023-08-17T08:30:28;26.70;1.70
5134;DHT22;2585;48.696;10.066;2023-08-17T08:32:55;27.10;59.90
5134;DHT22;2585;48.696;10.066;2023-08-17T08:35:24;27.40;69.30
5134;DHT22;2585;48.696;10.066;2023-08-17T08:37:51;27.40;29.80
5134;DHT22;2585;48.696;10.066;2023-08-17T08:40:19;27.30;1.00
5134;DHT22;2585;48.696;10.066;2023-08-17T08:42:47;26.80;91.90
5134;DHT22;2585;48.696;10.066;2023-08-17T08:45:14;26.80;83.70
5134;DHT22;2585;48.696;10.066;2023-08-17T08:47:42;27.30;1.00
5134;DHT22;2585;48.696;10.066;2023-08-17T08:50:16;27.50;1.00
5134;DHT22;2585;48.696;10.066;2023-08-17T08:52:59;27.40;31.40
5134;DHT22;2585;48.696;10.066;2023-08-17T08:55:30;27.50;1.00
5134;DHT22;2585;48.696;10.066;2023-08-17T08:57:59;27.80;1.00
5134;DHT22;2585;48.696;10.066;2023-08-17T09:00:27;27.90;1.00
5134;DHT22;2585;48.696;10.066;2023-08-17T09:02:54;28.00;93.20
5134;DHT22;2585;48.696;10.066;2023-08-17T09:05:22;28.00;77.30
5134;DHT22;2585;48.696;10.066;2023-08-17T09:07:49;28.00;60.80
5134;DHT22;2585;48.696;10.066;2023-08-17T09:10:17;28.00;62.80
5134;DHT22;2585;48.696;10.066;2023-08-17T09:12:46;28.10;49.00
5134;DHT22;2585;48.696;10.066;2023-08-17T09:15:15;28.00;62.20
5134;DHT22;2585;48.696;10.066;2023-08-17T09:17:42;28.00;45.80
5134;DHT22;2585;48.696;10.066;2023-08-17T09:20:10;28.20;52.90
5134;DHT22;2585;48.696;10.066;2023-08-17T09:22:39;28.40;1.00
5134;DHT22;2585;48.696;10.066;2023-08-17T09:25:08;28.30;1.00
5134;DHT22;2585;48.696;10.066;2023-08-17T09:27:36;28.60;1.00
5134;DHT22;2585;48.696;10.066;2023-08-17T09:30:08;29.00;1.00
5134;DHT22;2585;48.696;10.066;2023-08-17T09:32:35;28.80;1.00
5134;DHT22;2585;48.696;10.066;2023-08-17T09:35:06;28.70;92.20
5134;DHT22;2585;48.696;10.066;2023-08-17T09:37:33;28.90;81.50
5134;DHT22;2585;48.696;10.066;2023-08-17T09:40:00;29.10;81.60
5134;DHT22;2585;48.696;10.066;2023-08-17T09:42:27;29.30;92.30
5134;DHT22;2585;48.696;10.066;2023-08-17T09:44:54;29.60;80.00
5134;DHT22;2585;48.696;10.066;2023-08-17T09:47:24;30.00;65.20
5134;DHT22;2585;48.696;10.066;2023-08-17T09:49:54;29.70;8.20
5134;DHT22;2585;48.696;10.066;2023-08-17T09:52:22;29.40;1.00
5134;DHT22;2585;48.696;10.066;2023-08-17T09:54:52;29.50;1.00
5134;DHT22;2585;48.696;10.066;2023-08-17T09:57:21;29.60;1.00
5134;DHT22;2585;48.696;10.066;2023-08-17T09:59:49;29.90;1.00
5134;DHT22;2585;48.696;10.066;2023-08-17T10:02:23;29.80;1.00
5134;DHT22;2585;48.696;10.066;2023-08-17T10:04:53;29.60;1.00
5134;DHT22;2585;48.696;10.066;2023-08-17T10:07:28;30.20;1.00
5134;DHT22;2585;48.696;10.066;2023-08-17T10:10:04;31.00;1.00
5134;DHT22;2585;48.696;10.066;2023-08-17T10:12:43;31.40;96.40
5134;DHT22;2585;48.696;10.066;2023-08-17T10:15:13;31.20;73.20
5134;DHT22;2585;48.696;10.066;2023-08-17T10:18:09;30.60;61.10
5134;DHT22;2585;48.696;10.066;2023-08-17T10:20:54;30.20;44.70
5134;DHT22;2585;48.696;10.066;2023-08-17T10:23:27;29.90;50.00
5134;DHT22;2585;48.696;10.066;2023-08-17T10:25:54;30.20;61.20
5134;DHT22;2585;48.696;10.066;2023-08-17T10:28:22;30.10;64.70
5134;DHT22;2585;48.696;10.066;2023-08-17T10:30:48;30.10;64.20
5134;DHT22;2585;48.696;10.066;2023-08-17T10:33:16;30.30;61.60
5134;DHT22;2585;48.696;10.066;2023-08-17T10:35:43;30.70;57.50
5134;DHT22;2585;48.696;10.066;2023-08-17T10:38:11;31.20;51.10
5134;DHT22;2585;48.696;10.066;2023-08-17T10:40:40;31.50;10.90
5134;DHT22;2585;48.696;10.066;2023-08-17T10:43:07;31.40;1.00
5134;DHT22;2585;48.696;10.066;2023-08-17T10:45:35;31.10;1.00
5134;DHT22;2585;48.696;10.066;2023-08-17T10:50:36;31.70;1.00
5134;DHT22;2585;48.696;10.066;2023-08-17T10:53:12;31.70;1.00
5134;DHT22;2585;48.696;10.066;2023-08-17T10:55:41;31.80;1.00
5134;DHT22;2585;48.696;10.066;2023-08-17T10:58:08;31.90;1.00
5134;DHT22;2585;48.696;10.066;2023-08-17T11:00:41;32.00;1.00
5134;DHT22;2585;48.696;10.066;2023-08-17T11:03:19;32.40;1.00
5134;DHT22;2585;48.696;10.066;2023-08-17T11:05:52;32.70;1.00
5134;DHT22;2585;48.696;10.066;2023-08-17T11:08:39;33.10;1.00
5134;DHT22;2585;48.696;10.066;2023-08-17T11:11:13;32.80;1.00
5134;DHT22;2585;48.696;10.066;2023-08-17T11:13:44;33.20;1.00
5134;DHT22;2585;48.696;10.066;2023-08-17T11:16:13;33.50;1.00
5134;DHT22;2585;48.696;10.066;2023-08-17T11:18:44;33.60;1.00
5134;DHT22;2585;48.696;10.066;2023-08-17T11:21:12;34.10;1.00
5134;DHT22;2585;48.696;10.066;2023-08-17T11:23:45;33.90;95.60
5134;DHT22;2585;48.696;10.066;2023-08-17T11:26:16;33.90;97.00
5134;DHT22;2585;48.696;10.066;2023-08-17T11:28:43;33.00;95.20
5134;DHT22;2585;48.696;10.066;2023-08-17T11:31:13;33.20;95.40
5134;DHT22;2585;48.696;10.066;2023-08-17T11:33:41;32.60;94.10
5134;DHT22;2585;48.696;10.066;2023-08-17T11:36:09;32.70;95.40
5134;DHT22;2585;48.696;10.066;2023-08-17T11:38:42;33.10;95.80
5134;DHT22;2585;48.696;10.066;2023-08-17T11:41:09;33.70;95.10
5134;DHT22;2585;48.696;10.066;2023-08-17T11:43:43;33.70;93.90
5134;DHT22;2585;48.696;10.066;2023-08-17T11:46:11;34.00;94.50
5134;DHT22;2585;48.696;10.066;2023-08-17T11:48:39;33.80;93.20
5134;DHT22;2585;48.696;10.066;2023-08-17T11:51:05;34.20;92.50
5134;DHT22;2585;48.696;10.066;2023-08-17T11:53:36;34.40;93.60
5134;DHT22;2585;48.696;10.066;2023-08-17T11:56:05;34.20;91.40
5134;DHT22;2585;48.696;10.066;2023-08-17T11:58:56;34.10;90.40
5134;DHT22;2585;48.696;10.066;2023-08-17T12:01:23;33.90;88.70
5134;DHT22;2585;48.696;10.066;2023-08-17T12:03:50;33.80;86.70
5134;DHT22;2585;48.696;10.066;2023-08-17T12:06:17;33.70;86.20
5134;DHT22;2585;48.696;10.066;2023-08-17T12:08:47;33.80;86.00
5134;DHT22;2585;48.696;10.066;2023-08-17T12:11:18;33.70;86.60
5134;DHT22;2585;48.696;10.066;2023-08-17T12:13:49;33.80;85.20
5134;DHT22;2585;48.696;10.066;2023-08-17T12:16:19;34.10;82.90
5134;DHT22;2585;48.696;10.066;2023-08-17T12:18:53;34.20;82.30
5134;DHT22;2585;48.696;10.066;2023-08-17T12:21:23;33.80;80.50
5134;DHT22;2585;48.696;10.066;2023-08-17T12:23:51;33.20;79.30
5134;DHT22;2585;48.696;10.066;2023-08-17T12:26:19;33.00;78.50
5134;DHT22;2585;48.696;10.066;2023-08-17T12:28:46;33.40;83.90
5134;DHT22;2585;48.696;10.066;2023-08-17T12:31:13;33.80;80.50
5134;DHT22;2585;48.696;10.066;2023-08-17T12:33:40;34.10;79.50
5134;DHT22;2585;48.696;10.066;2023-08-17T12:36:07;33.50;76.50
5134;DHT22;2585;48.696;10.066;2023-08-17T12:38:34;33.30;76.10
5134;DHT22;2585;48.696;10.066;2023-08-17T12:41:01;33.50;77.20
5134;DHT22;2585;48.696;10.066;2023-08-17T12:43:32;33.60;78.80
5134;DHT22;2585;48.696;10.066;2023-08-17T12:45:59;32.50;75.30
5134;DHT22;2585;48.696;10.066;2023-08-17T12:48:26;31.80;78.40
5134;DHT22;2585;48.696;10.066;2023-08-17T12:50:53;31.90;79.70
5134;DHT22;2585;48.696;10.066;2023-08-17T12:53:20;31.50;79.90
5134;DHT22;2585;48.696;10.066;2023-08-17T12:55:47;31.30;79.20
5134;DHT22;2585;48.696;10.066;2023-08-17T12:58:13;31.30;81.60
5134;DHT22;2585;48.696;10.066;2023-08-17T13:00:40;31.10;82.80
5134;DHT22;2585;48.696;10.066;2023-08-17T13:03:07;31.10;85.50
5134;DHT22;2585;48.696;10.066;2023-08-17T13:05:36;30.60;87.70
5134;DHT22;2585;48.696;10.066;2023-08-17T13:08:03;30.50;87.00
5134;DHT22;2585;48.696;10.066;2023-08-17T13:10:30;30.30;84.10
5134;DHT22;2585;48.696;10.066;2023-08-17T13:12:57;30.20;82.60
5134;DHT22;2585;48.696;10.066;2023-08-17T13:15:26;30.20;82.40
5134;DHT22;2585;48.696;10.066;2023-08-17T13:17:53;29.80;88.10
5134;DHT22;2585;48.696;10.066;2023-08-17T13:20:20;29.50;84.30
5134;DHT22;2585;48.696;10.066;2023-08-17T13:22:47;29.20;86.30
5134;DHT22;2585;48.696;10.066;2023-08-17T13:25:14;29.00;90.00
5134;DHT22;2585;48.696;10.066;2023-08-17T13:27:41;28.50;92.80
5134;DHT22;2585;48.696;10.066;2023-08-17T13:30:08;28.20;1.00
5134;DHT22;2585;48.696;10.066;2023-08-17T13:32:35;27.90;1.00
5134;DHT22;2585;48.696;10.066;2023-08-17T13:35:03;27.60;18.70
5134;DHT22;2585;48.696;10.066;2023-08-17T13:37:30;27.10;9.50
5134;DHT22;2585;48.696;10.066;2023-08-17T13:39:57;26.80;1.00
5134;DHT22;2585;48.696;10.066;2023-08-17T13:42:25;26.60;87.30
5134;DHT22;2585;48.696;10.066;2023-08-17T13:44:52;26.50;1.00
5134;DHT22;2585;48.696;10.066;2023-08-17T13:47:19;26.30;66.70
5134;DHT22;2585;48.696;10.066;2023-08-17T13:49:46;26.40;89.30
5134;DHT22;2585;48.696;10.066;2023-08-17T13:52:13;26.30;84.10
5134;DHT22;2585;48.696;10.066;2023-08-17T13:54:40;25.90;28.50
5134;DHT22;2585;48.696;10.066;2023-08-17T13:57:07;25.70;1.00
5134;DHT22;2585;48.696;10.066;2023-08-17T13:59:34;25.60;91.50
5134;DHT22;2585;48.696;10.066;2023-08-17T14:02:00;25.40;1.00
5134;DHT22;2585;48.696;10.066;2023-08-17T14:04:27;25.40;1.00
5134;DHT22;2585;48.696;10.066;2023-08-17T14:06:54;25.10;76.20
5134;DHT22;2585;48.696;10.066;2023-08-17T14:09:21;24.80;83.00
5134;DHT22;2585;48.696;10.066;2023-08-17T14:11:48;24.50;9.20
5134;DHT22;2585;48.696;10.066;2023-08-17T14:14:15;24.40;67.30
5134;DHT22;2585;48.696;10.066;2023-08-17T14:16:42;24.00;1.00
5134;DHT22;2585;48.696;10.066;2023-08-17T14:19:09;24.00;48.00
5134;DHT22;2585;48.696;10.066;2023-08-17T14:21:36;23.70;68.20
5134;DHT22;2585;48.696;10.066;2023-08-17T14:24:03;23.70;85.60
5134;DHT22;2585;48.696;10.066;2023-08-17T14:26:30;23.70;84.00
5134;DHT22;2585;48.696;10.066;2023-08-17T14:28:58;23.60;84.90
5134;DHT22;2585;48.696;10.066;2023-08-17T14:31:25;23.60;88.20
5134;DHT22;2585;48.696;10.066;2023-08-17T14:33:52;23.50;88.50
5134;DHT22;2585;48.696;10.066;2023-08-17T14:36:19;23.50;88.30
5134;DHT22;2585;48.696;10.066;2023-08-17T14:38:47;23.40;87.70
5134;DHT22;2585;48.696;10.066;2023-08-17T14:41:13;23.30;87.80
5134;DHT22;2585;48.696;10.066;2023-08-17T14:43:40;23.30;90.20
5134;DHT22;2585;48.696;10.066;2023-08-17T14:46:07;23.20;90.70
5134;DHT22;2585;48.696;10.066;2023-08-17T14:48:39;23.10;92.10
5134;DHT22;2585;48.696;10.066;2023-08-17T14:51:06;23.20;92.60
5134;DHT22;2585;48.696;10.066;2023-08-17T14:53:33;23.10;92.80
5134;DHT22;2585;48.696;10.066;2023-08-17T14:56:05;22.90;93.10
5134;DHT22;2585;48.696;10.066;2023-08-17T14:58:34;22.80;93.50
5134;DHT22;2585;48.696;10.066;2023-08-17T15:01:01;22.90;93.70
5134;DHT22;2585;48.696;10.066;2023-08-17T15:03:29;22.90;93.70
5134;DHT22;2585;48.696;10.066;2023-08-17T15:05:56;22.80;93.70
5134;DHT22;2585;48.696;10.066;2023-08-17T15:08:23;22.70;93.70
5134;DHT22;2585;48.696;10.066;2023-08-17T15:10:50;22.70;93.70
5134;DHT22;2585;48.696;10.066;2023-08-17T15:13:17;22.60;93.80
5134;DHT22;2585;48.696;10.066;2023-08-17T15:15:45;22.50;94.00
5134;DHT22;2585;48.696;10.066;2023-08-17T15:18:12;22.40;94.20
5134;DHT22;2585;48.696;10.066;2023-08-17T15:20:39;22.40;94.30
5134;DHT22;2585;48.696;10.066;2023-08-17T15:23:05;22.50;94.50
5134;DHT22;2585;48.696;10.066;2023-08-17T15:25:32;22.50;94.60
5134;DHT22;2585;48.696;10.066;2023-08-17T15:27:59;22.50;94.60
5134;DHT22;2585;48.696;10.066;2023-08-17T15:30:26;22.40;94.60
5134;DHT22;2585;48.696;10.066;2023-08-17T15:32:53;22.40;94.60
5134;DHT22;2585;48.696;10.066;2023-08-17T15:35:20;22.50;94.60
5134;DHT22;2585;48.696;10.066;2023-08-17T15:37:47;22.50;94.70
5134;DHT22;2585;48.696;10.066;2023-08-17T15:40:13;22.50;94.70
5134;DHT22;2585;48.696;10.066;2023-08-17T15:42:40;22.40;94.60
5134;DHT22;2585;48.696;10.066;2023-08-17T15:45:08;22.50;94.70
5134;DHT22;2585;48.696;10.066;2023-08-17T15:47:35;22.50;94.70
5134;DHT22;2585;48.696;10.066;2023-08-17T15:50:02;22.40;94.60
5134;DHT22;2585;48.696;10.066;2023-08-17T15:52:29;22.30;94.60
5134;DHT22;2585;48.696;10.066;2023-08-17T15:54:55;22.30;94.70
5134;DHT22;2585;48.696;10.066;2023-08-17T15:57:22;22.30;94.70